Terminal Aerodrome Forecast
Issued by NWS

Home | Current Version | Previous Version | Text Only | Print | Product List | Glossary On
Versions: 1 2 3 4 5 6 7 8 9 10 11 12 13 14 15 16 17
000
FTUS45 KREV 190632 AAA
TAFTVL
TAF AMD
KTVL 190632Z 1907/2006 19012KT 1SM -SN OVC009 WS020/24045KT
     FM191200 19005KT 5SM -SHSN BKN035 OVC050 WS020/24045KT
      TEMPO 1912/1916 1SM -SN BKN009
     FM192200 19008KT 1 1/2SM -SHSN OVC009=

USA.gov is the U.S. government's official web portal to all federal, state and local government web resources and services.